sensor_id;sensor_type;location;lat;lon;timestamp;temperature;humidity
3699;DHT22;1865;50.918;7.092;2023-04-03T00:01:32;8.30;46.40
3699;DHT22;1865;50.918;7.092;2023-04-03T00:03:57;8.30;46.20
3699;DHT22;1865;50.918;7.092;2023-04-03T00:06:23;8.30;45.70
3699;DHT22;1865;50.918;7.092;2023-04-03T00:08:50;8.40;45.60
3699;DHT22;1865;50.918;7.092;2023-04-03T00:11:16;8.40;45.30
3699;DHT22;1865;50.918;7.092;2023-04-03T00:13:43;8.30;45.30
3699;DHT22;1865;50.918;7.092;2023-04-03T00:16:09;8.30;45.60
3699;DHT22;1865;50.918;7.092;2023-04-03T00:18:36;8.30;45.30
3699;DHT22;1865;50.918;7.092;2023-04-03T00:21:02;8.40;45.40
3699;DHT22;1865;50.918;7.092;2023-04-03T00:23:28;8.30;45.40
3699;DHT22;1865;50.918;7.092;2023-04-03T00:25:53;8.30;45.60
3699;DHT22;1865;50.918;7.092;2023-04-03T00:28:19;8.20;45.60
3699;DHT22;1865;50.918;7.092;2023-04-03T00:30:45;8.30;45.70
3699;DHT22;1865;50.918;7.092;2023-04-03T00:33:14;8.20;46.10
3699;DHT22;1865;50.918;7.092;2023-04-03T00:35:40;8.30;46.20
3699;DHT22;1865;50.918;7.092;2023-04-03T00:38:05;8.30;46.70
3699;DHT22;1865;50.918;7.092;2023-04-03T00:40:36;8.30;45.80
3699;DHT22;1865;50.918;7.092;2023-04-03T00:43:04;8.20;45.90
3699;DHT22;1865;50.918;7.092;2023-04-03T00:45:38;8.20;46.10
3699;DHT22;1865;50.918;7.092;2023-04-03T00:48:07;8.20;46.50
3699;DHT22;1865;50.918;7.092;2023-04-03T00:50:37;8.10;46.50
3699;DHT22;1865;50.918;7.092;2023-04-03T00:53:04;8.10;46.70
3699;DHT22;1865;50.918;7.092;2023-04-03T00:55:31;8.00;45.50
3699;DHT22;1865;50.918;7.092;2023-04-03T00:57:58;8.10;46.00
3699;DHT22;1865;50.918;7.092;2023-04-03T01:00:26;8.10;45.90
3699;DHT22;1865;50.918;7.092;2023-04-03T01:02:51;8.10;46.60
3699;DHT22;1865;50.918;7.092;2023-04-03T01:05:19;8.10;46.10
3699;DHT22;1865;50.918;7.092;2023-04-03T01:07:46;8.10;46.00
3699;DHT22;1865;50.918;7.092;2023-04-03T01:10:14;8.10;46.20
3699;DHT22;1865;50.918;7.092;2023-04-03T01:12:42;8.00;46.10
3699;DHT22;1865;50.918;7.092;2023-04-03T01:15:11;7.90;46.20
3699;DHT22;1865;50.918;7.092;2023-04-03T01:17:52;8.00;46.50
3699;DHT22;1865;50.918;7.092;2023-04-03T01:25:44;7.90;45.70
3699;DHT22;1865;50.918;7.092;2023-04-03T01:28:12;8.00;45.40
3699;DHT22;1865;50.918;7.092;2023-04-03T01:31:04;8.00;45.80
3699;DHT22;1865;50.918;7.092;2023-04-03T01:33:31;7.90;45.60
3699;DHT22;1865;50.918;7.092;2023-04-03T01:35:56;7.80;46.40
3699;DHT22;1865;50.918;7.092;2023-04-03T01:38:22;7.80;46.30
3699;DHT22;1865;50.918;7.092;2023-04-03T01:40:48;7.80;46.40
3699;DHT22;1865;50.918;7.092;2023-04-03T01:43:13;7.70;46.70
3699;DHT22;1865;50.918;7.092;2023-04-03T01:45:39;7.70;46.40
3699;DHT22;1865;50.918;7.092;2023-04-03T01:48:04;7.60;46.70
3699;DHT22;1865;50.918;7.092;2023-04-03T01:50:30;7.60;46.80
3699;DHT22;1865;50.918;7.092;2023-04-03T01:52:55;7.60;46.90
3699;DHT22;1865;50.918;7.092;2023-04-03T01:55:21;7.60;46.50
3699;DHT22;1865;50.918;7.092;2023-04-03T01:57:46;7.50;46.40
3699;DHT22;1865;50.918;7.092;2023-04-03T02:00:12;7.50;46.90
3699;DHT22;1865;50.918;7.092;2023-04-03T02:02:38;7.50;47.10
3699;DHT22;1865;50.918;7.092;2023-04-03T02:05:04;7.40;46.50
3699;DHT22;1865;50.918;7.092;2023-04-03T02:07:30;7.30;47.00
3699;DHT22;1865;50.918;7.092;2023-04-03T02:09:55;7.40;46.70
3699;DHT22;1865;50.918;7.092;2023-04-03T02:12:21;7.30;46.60
3699;DHT22;1865;50.918;7.092;2023-04-03T02:14:47;7.20;46.80
3699;DHT22;1865;50.918;7.092;2023-04-03T02:17:12;7.10;47.10
3699;DHT22;1865;50.918;7.092;2023-04-03T02:19:38;7.10;47.00
3699;DHT22;1865;50.918;7.092;2023-04-03T02:22:04;7.00;47.10
3699;DHT22;1865;50.918;7.092;2023-04-03T02:24:30;6.90;47.30
3699;DHT22;1865;50.918;7.092;2023-04-03T02:26:56;6.90;47.40
3699;DHT22;1865;50.918;7.092;2023-04-03T02:29:22;6.90;47.60
3699;DHT22;1865;50.918;7.092;2023-04-03T02:31:47;6.80;47.90
3699;DHT22;1865;50.918;7.092;2023-04-03T02:34:13;6.80;47.90
3699;DHT22;1865;50.918;7.092;2023-04-03T02:36:38;6.80;47.90
3699;DHT22;1865;50.918;7.092;2023-04-03T02:39:04;6.80;47.80
3699;DHT22;1865;50.918;7.092;2023-04-03T02:41:30;6.80;47.60
3699;DHT22;1865;50.918;7.092;2023-04-03T02:44:01;6.80;47.60
3699;DHT22;1865;50.918;7.092;2023-04-03T02:46:27;6.70;48.00
3699;DHT22;1865;50.918;7.092;2023-04-03T02:48:53;6.60;47.90
3699;DHT22;1865;50.918;7.092;2023-04-03T02:51:19;6.60;47.80
3699;DHT22;1865;50.918;7.092;2023-04-03T02:53:44;6.50;48.40
3699;DHT22;1865;50.918;7.092;2023-04-03T02:56:10;6.60;48.50
3699;DHT22;1865;50.918;7.092;2023-04-03T02:58:36;6.60;48.30
3699;DHT22;1865;50.918;7.092;2023-04-03T03:01:02;6.50;48.30
3699;DHT22;1865;50.918;7.092;2023-04-03T03:03:27;6.50;48.20
3699;DHT22;1865;50.918;7.092;2023-04-03T03:06:10;6.50;48.20
3699;DHT22;1865;50.918;7.092;2023-04-03T03:08:37;6.40;48.50
3699;DHT22;1865;50.918;7.092;2023-04-03T03:11:03;6.40;48.60
3699;DHT22;1865;50.918;7.092;2023-04-03T03:13:29;6.40;48.20
3699;DHT22;1865;50.918;7.092;2023-04-03T03:15:55;6.30;48.70
3699;DHT22;1865;50.918;7.092;2023-04-03T03:18:21;6.30;48.50
3699;DHT22;1865;50.918;7.092;2023-04-03T03:20:54;6.30;48.50
3699;DHT22;1865;50.918;7.092;2023-04-03T03:23:21;6.30;48.30
3699;DHT22;1865;50.918;7.092;2023-04-03T03:25:47;6.30;48.50
3699;DHT22;1865;50.918;7.092;2023-04-03T03:28:13;6.30;48.40
3699;DHT22;1865;50.918;7.092;2023-04-03T03:30:39;6.30;48.50
3699;DHT22;1865;50.918;7.092;2023-04-03T03:33:04;6.30;48.20
3699;DHT22;1865;50.918;7.092;2023-04-03T03:35:30;6.30;48.20
3699;DHT22;1865;50.918;7.092;2023-04-03T03:37:55;6.30;49.00
3699;DHT22;1865;50.918;7.092;2023-04-03T03:40:21;6.30;49.60
3699;DHT22;1865;50.918;7.092;2023-04-03T03:42:47;6.40;49.30
3699;DHT22;1865;50.918;7.092;2023-04-03T03:45:12;6.40;49.10
3699;DHT22;1865;50.918;7.092;2023-04-03T03:47:38;6.50;49.40
3699;DHT22;1865;50.918;7.092;2023-04-03T03:50:03;6.50;48.80
3699;DHT22;1865;50.918;7.092;2023-04-03T03:52:29;6.60;48.50
3699;DHT22;1865;50.918;7.092;2023-04-03T03:54:55;6.70;48.40
3699;DHT22;1865;50.918;7.092;2023-04-03T03:57:21;6.70;48.10
3699;DHT22;1865;50.918;7.092;2023-04-03T03:59:47;6.80;47.50
3699;DHT22;1865;50.918;7.092;2023-04-03T04:02:14;6.80;46.80
3699;DHT22;1865;50.918;7.092;2023-04-03T04:04:39;6.90;46.90
3699;DHT22;1865;50.918;7.092;2023-04-03T04:07:05;6.90;47.40
3699;DHT22;1865;50.918;7.092;2023-04-03T04:09:30;6.90;46.40
3699;DHT22;1865;50.918;7.092;2023-04-03T04:11:56;6.90;45.70
3699;DHT22;1865;50.918;7.092;2023-04-03T04:14:22;7.00;46.00
3699;DHT22;1865;50.918;7.092;2023-04-03T04:16:47;7.00;45.70
3699;DHT22;1865;50.918;7.092;2023-04-03T04:19:14;7.00;45.20
3699;DHT22;1865;50.918;7.092;2023-04-03T04:21:40;7.00;45.70
3699;DHT22;1865;50.918;7.092;2023-04-03T04:24:07;7.10;46.00
3699;DHT22;1865;50.918;7.092;2023-04-03T04:26:32;7.10;45.50
3699;DHT22;1865;50.918;7.092;2023-04-03T04:28:58;7.10;45.10
3699;DHT22;1865;50.918;7.092;2023-04-03T04:31:23;7.10;45.60
3699;DHT22;1865;50.918;7.092;2023-04-03T04:33:49;7.00;44.80
3699;DHT22;1865;50.918;7.092;2023-04-03T04:36:15;7.10;44.70
3699;DHT22;1865;50.918;7.092;2023-04-03T04:38:41;7.10;44.80
3699;DHT22;1865;50.918;7.092;2023-04-03T04:41:07;7.00;44.40
3699;DHT22;1865;50.918;7.092;2023-04-03T04:43:33;7.00;44.30
3699;DHT22;1865;50.918;7.092;2023-04-03T04:46:07;7.10;44.40
3699;DHT22;1865;50.918;7.092;2023-04-03T04:48:34;7.10;44.30
3699;DHT22;1865;50.918;7.092;2023-04-03T04:50:59;7.10;44.40
3699;DHT22;1865;50.918;7.092;2023-04-03T04:53:25;7.10;43.50
3699;DHT22;1865;50.918;7.092;2023-04-03T04:55:51;7.10;44.00
3699;DHT22;1865;50.918;7.092;2023-04-03T04:58:17;7.10;43.90
3699;DHT22;1865;50.918;7.092;2023-04-03T05:00:42;7.10;45.00
3699;DHT22;1865;50.918;7.092;2023-04-03T05:03:08;7.10;44.10
3699;DHT22;1865;50.918;7.092;2023-04-03T05:05:33;7.10;45.20
3699;DHT22;1865;50.918;7.092;2023-04-03T05:07:59;7.10;44.00
3699;DHT22;1865;50.918;7.092;2023-04-03T05:10:24;7.10;43.70
3699;DHT22;1865;50.918;7.092;2023-04-03T05:12:51;7.10;43.70
3699;DHT22;1865;50.918;7.092;2023-04-03T05:15:16;7.10;43.50
3699;DHT22;1865;50.918;7.092;2023-04-03T05:17:42;7.10;43.90
3699;DHT22;1865;50.918;7.092;2023-04-03T05:20:08;7.10;43.90
3699;DHT22;1865;50.918;7.092;2023-04-03T05:22:33;7.10;43.70
3699;DHT22;1865;50.918;7.092;2023-04-03T05:24:59;7.20;43.80
3699;DHT22;1865;50.918;7.092;2023-04-03T05:27:25;7.20;43.40
3699;DHT22;1865;50.918;7.092;2023-04-03T05:29:53;7.10;43.60
3699;DHT22;1865;50.918;7.092;2023-04-03T05:32:19;7.10;43.60
3699;DHT22;1865;50.918;7.092;2023-04-03T05:34:45;7.10;43.30
3699;DHT22;1865;50.918;7.092;2023-04-03T05:37:11;7.20;43.30
3699;DHT22;1865;50.918;7.092;2023-04-03T05:39:36;7.20;43.10
3699;DHT22;1865;50.918;7.092;2023-04-03T05:42:03;7.30;42.90
3699;DHT22;1865;50.918;7.092;2023-04-03T05:44:29;7.30;43.00
3699;DHT22;1865;50.918;7.092;2023-04-03T05:46:54;7.40;43.10
3699;DHT22;1865;50.918;7.092;2023-04-03T05:49:20;7.50;42.80
3699;DHT22;1865;50.918;7.092;2023-04-03T05:51:46;7.50;42.90
3699;DHT22;1865;50.918;7.092;2023-04-03T05:54:19;7.50;42.10
3699;DHT22;1865;50.918;7.092;2023-04-03T05:56:44;7.60;42.40
3699;DHT22;1865;50.918;7.092;2023-04-03T05:59:10;7.70;42.10
3699;DHT22;1865;50.918;7.092;2023-04-03T06:01:36;7.80;42.00
3699;DHT22;1865;50.918;7.092;2023-04-03T06:04:02;7.80;42.00
3699;DHT22;1865;50.918;7.092;2023-04-03T06:06:43;8.00;41.10
3699;DHT22;1865;50.918;7.092;2023-04-03T06:09:09;8.00;40.90
3699;DHT22;1865;50.918;7.092;2023-04-03T06:11:35;8.10;41.80
3699;DHT22;1865;50.918;7.092;2023-04-03T06:14:01;8.10;41.60
3699;DHT22;1865;50.918;7.092;2023-04-03T06:16:26;8.30;41.00
3699;DHT22;1865;50.918;7.092;2023-04-03T06:18:52;8.30;40.30
3699;DHT22;1865;50.918;7.092;2023-04-03T06:21:17;8.40;40.10
3699;DHT22;1865;50.918;7.092;2023-04-03T06:23:43;8.30;39.40
3699;DHT22;1865;50.918;7.092;2023-04-03T06:26:08;8.50;40.60
3699;DHT22;1865;50.918;7.092;2023-04-03T06:28:34;8.60;40.00
3699;DHT22;1865;50.918;7.092;2023-04-03T06:30:59;8.70;40.10
3699;DHT22;1865;50.918;7.092;2023-04-03T06:33:25;8.70;39.30
3699;DHT22;1865;50.918;7.092;2023-04-03T06:35:56;8.60;39.00
3699;DHT22;1865;50.918;7.092;2023-04-03T06:38:22;8.60;39.80
3699;DHT22;1865;50.918;7.092;2023-04-03T06:40:47;8.60;38.80
3699;DHT22;1865;50.918;7.092;2023-04-03T06:43:13;8.20;38.40
3699;DHT22;1865;50.918;7.092;2023-04-03T06:45:38;8.30;39.40
3699;DHT22;1865;50.918;7.092;2023-04-03T06:48:04;8.40;39.60
3699;DHT22;1865;50.918;7.092;2023-04-03T06:50:30;8.60;39.80
3699;DHT22;1865;50.918;7.092;2023-04-03T06:52:56;8.70;38.10
3699;DHT22;1865;50.918;7.092;2023-04-03T06:55:22;8.70;38.00
3699;DHT22;1865;50.918;7.092;2023-04-03T06:57:47;8.50;38.30
3699;DHT22;1865;50.918;7.092;2023-04-03T07:00:13;8.60;38.10
3699;DHT22;1865;50.918;7.092;2023-04-03T07:02:40;8.70;39.00
3699;DHT22;1865;50.918;7.092;2023-04-03T07:05:06;8.60;37.30
3699;DHT22;1865;50.918;7.092;2023-04-03T07:07:32;8.70;38.10
3699;DHT22;1865;50.918;7.092;2023-04-03T07:09:59;8.70;37.30
3699;DHT22;1865;50.918;7.092;2023-04-03T07:12:25;8.80;38.20
3699;DHT22;1865;50.918;7.092;2023-04-03T07:14:50;9.00;37.50
3699;DHT22;1865;50.918;7.092;2023-04-03T07:17:16;9.00;37.30
3699;DHT22;1865;50.918;7.092;2023-04-03T07:19:41;8.50;37.30
3699;DHT22;1865;50.918;7.092;2023-04-03T07:22:07;8.60;38.10
3699;DHT22;1865;50.918;7.092;2023-04-03T07:24:33;8.70;38.10
3699;DHT22;1865;50.918;7.092;2023-04-03T07:26:58;8.80;37.50
3699;DHT22;1865;50.918;7.092;2023-04-03T07:29:24;9.00;37.90
3699;DHT22;1865;50.918;7.092;2023-04-03T07:31:49;9.00;36.40
3699;DHT22;1865;50.918;7.092;2023-04-03T07:34:15;9.10;37.30
3699;DHT22;1865;50.918;7.092;2023-04-03T07:36:41;8.90;35.80
3699;DHT22;1865;50.918;7.092;2023-04-03T07:39:06;9.00;36.50
3699;DHT22;1865;50.918;7.092;2023-04-03T07:41:33;8.90;35.60
3699;DHT22;1865;50.918;7.092;2023-04-03T07:43:59;8.90;36.80
3699;DHT22;1865;50.918;7.092;2023-04-03T07:46:24;9.40;36.60
3699;DHT22;1865;50.918;7.092;2023-04-03T07:48:50;9.70;35.70
3699;DHT22;1865;50.918;7.092;2023-04-03T07:51:15;10.00;34.70
3699;DHT22;1865;50.918;7.092;2023-04-03T07:53:41;10.00;34.40
3699;DHT22;1865;50.918;7.092;2023-04-03T07:56:08;10.00;34.20
3699;DHT22;1865;50.918;7.092;2023-04-03T07:58:33;9.90;34.60
3699;DHT22;1865;50.918;7.092;2023-04-03T08:00:59;9.70;34.70
3699;DHT22;1865;50.918;7.092;2023-04-03T08:03:25;9.60;34.30
3699;DHT22;1865;50.918;7.092;2023-04-03T08:05:51;10.40;35.00
3699;DHT22;1865;50.918;7.092;2023-04-03T08:08:22;11.50;32.00
3699;DHT22;1865;50.918;7.092;2023-04-03T08:10:52;12.50;30.50
3699;DHT22;1865;50.918;7.092;2023-04-03T08:13:18;12.80;29.30
3699;DHT22;1865;50.918;7.092;2023-04-03T08:15:44;12.90;29.00
3699;DHT22;1865;50.918;7.092;2023-04-03T08:18:10;12.40;28.90
3699;DHT22;1865;50.918;7.092;2023-04-03T08:20:35;12.50;29.30
3699;DHT22;1865;50.918;7.092;2023-04-03T08:23:02;12.50;29.50
3699;DHT22;1865;50.918;7.092;2023-04-03T08:25:28;12.00;29.60
3699;DHT22;1865;50.918;7.092;2023-04-03T08:27:55;11.80;30.00
3699;DHT22;1865;50.918;7.092;2023-04-03T08:30:20;12.10;30.00
3699;DHT22;1865;50.918;7.092;2023-04-03T08:32:46;12.60;28.80
3699;DHT22;1865;50.918;7.092;2023-04-03T08:35:12;11.50;28.40
3699;DHT22;1865;50.918;7.092;2023-04-03T08:37:38;11.30;29.20
3699;DHT22;1865;50.918;7.092;2023-04-03T08:40:06;11.10;30.30
3699;DHT22;1865;50.918;7.092;2023-04-03T08:48:04;12.10;29.00
3699;DHT22;1865;50.918;7.092;2023-04-03T08:50:40;13.20;27.00
3699;DHT22;1865;50.918;7.092;2023-04-03T08:53:14;14.20;24.70
3699;DHT22;1865;50.918;7.092;2023-04-03T08:55:44;14.70;23.70
3699;DHT22;1865;50.918;7.092;2023-04-03T09:00:55;14.90;23.50
3699;DHT22;1865;50.918;7.092;2023-04-03T09:03:22;15.40;23.10
3699;DHT22;1865;50.918;7.092;2023-04-03T09:13:57;15.50;23.60
3699;DHT22;1865;50.918;7.092;2023-04-03T09:16:36;14.80;23.30
3699;DHT22;1865;50.918;7.092;2023-04-03T09:19:18;13.10;24.60
3699;DHT22;1865;50.918;7.092;2023-04-03T09:21:46;12.70;25.60
3699;DHT22;1865;50.918;7.092;2023-04-03T09:24:14;12.40;26.00
3699;DHT22;1865;50.918;7.092;2023-04-03T09:26:56;12.30;25.90
3699;DHT22;1865;50.918;7.092;2023-04-03T09:29:25;12.10;24.80
3699;DHT22;1865;50.918;7.092;2023-04-03T09:31:56;11.90;25.70
3699;DHT22;1865;50.918;7.092;2023-04-03T09:34:26;12.00;26.50
3699;DHT22;1865;50.918;7.092;2023-04-03T09:36:54;12.00;26.10
3699;DHT22;1865;50.918;7.092;2023-04-03T09:39:23;12.00;25.70
3699;DHT22;1865;50.918;7.092;2023-04-03T09:42:03;12.10;26.60
3699;DHT22;1865;50.918;7.092;2023-04-03T09:44:32;12.30;24.90
3699;DHT22;1865;50.918;7.092;2023-04-03T09:46:59;12.10;24.30
3699;DHT22;1865;50.918;7.092;2023-04-03T09:49:25;11.90;25.50
3699;DHT22;1865;50.918;7.092;2023-04-03T09:51:51;12.20;25.70
3699;DHT22;1865;50.918;7.092;2023-04-03T09:54:32;12.50;25.50
3699;DHT22;1865;50.918;7.092;2023-04-03T09:57:04;12.20;24.40
3699;DHT22;1865;50.918;7.092;2023-04-03T09:59:31;11.90;24.80
3699;DHT22;1865;50.918;7.092;2023-04-03T10:02:04;11.90;25.30
3699;DHT22;1865;50.918;7.092;2023-04-03T10:04:41;12.10;24.20
3699;DHT22;1865;50.918;7.092;2023-04-03T10:07:27;12.30;24.10
3699;DHT22;1865;50.918;7.092;2023-04-03T10:10:03;12.70;24.20
3699;DHT22;1865;50.918;7.092;2023-04-03T10:12:29;12.60;22.50
3699;DHT22;1865;50.918;7.092;2023-04-03T10:14:59;12.40;22.10
3699;DHT22;1865;50.918;7.092;2023-04-03T10:20:40;12.50;20.90
3699;DHT22;1865;50.918;7.092;2023-04-03T10:23:38;12.20;21.60
3699;DHT22;1865;50.918;7.092;2023-04-03T10:31:28;12.40;21.60
3699;DHT22;1865;50.918;7.092;2023-04-03T10:34:14;12.60;22.30
3699;DHT22;1865;50.918;7.092;2023-04-03T10:55:51;12.30;19.20
3699;DHT22;1865;50.918;7.092;2023-04-03T10:58:29;12.60;19.40
3699;DHT22;1865;50.918;7.092;2023-04-03T11:00:59;13.20;19.30
3699;DHT22;1865;50.918;7.092;2023-04-03T11:03:39;13.70;18.30
3699;DHT22;1865;50.918;7.092;2023-04-03T11:06:09;13.30;17.60
3699;DHT22;1865;50.918;7.092;2023-04-03T11:08:43;13.40;18.00
3699;DHT22;1865;50.918;7.092;2023-04-03T11:11:13;13.80;18.60
3699;DHT22;1865;50.918;7.092;2023-04-03T11:13:46;13.90;18.70
3699;DHT22;1865;50.918;7.092;2023-04-03T11:16:23;14.00;17.60
3699;DHT22;1865;50.918;7.092;2023-04-03T11:19:24;13.60;17.80
3699;DHT22;1865;50.918;7.092;2023-04-03T11:22:00;13.60;18.50
3699;DHT22;1865;50.918;7.092;2023-04-03T11:24:29;13.60;18.50
3699;DHT22;1865;50.918;7.092;2023-04-03T11:26:58;13.70;18.60
3699;DHT22;1865;50.918;7.092;2023-04-03T11:29:31;13.90;19.10
3699;DHT22;1865;50.918;7.092;2023-04-03T11:34:46;13.90;18.60
3699;DHT22;1865;50.918;7.092;2023-04-03T11:37:21;13.80;18.80
3699;DHT22;1865;50.918;7.092;2023-04-03T11:40:18;13.90;18.10
3699;DHT22;1865;50.918;7.092;2023-04-03T11:42:47;14.30;19.00
3699;DHT22;1865;50.918;7.092;2023-04-03T11:48:00;14.10;18.10
3699;DHT22;1865;50.918;7.092;2023-04-03T12:05:55;18.00;14.20
3699;DHT22;1865;50.918;7.092;2023-04-03T12:27:00;15.50;16.50
3699;DHT22;1865;50.918;7.092;2023-04-03T12:46:07;16.60;16.70
3699;DHT22;1865;50.918;7.092;2023-04-03T12:51:15;18.30;15.70
3699;DHT22;1865;50.918;7.092;2023-04-03T12:53:43;19.30;14.00
3699;DHT22;1865;50.918;7.092;2023-04-03T12:58:48;19.50;13.80
3699;DHT22;1865;50.918;7.092;2023-04-03T13:01:16;18.60;14.50
3699;DHT22;1865;50.918;7.092;2023-04-03T13:03:45;17.80;14.10
3699;DHT22;1865;50.918;7.092;2023-04-03T13:06:24;17.20;15.60
3699;DHT22;1865;50.918;7.092;2023-04-03T13:08:57;17.20;15.20
3699;DHT22;1865;50.918;7.092;2023-04-03T13:11:24;17.00;15.80
3699;DHT22;1865;50.918;7.092;2023-04-03T13:14:04;16.20;15.40
3699;DHT22;1865;50.918;7.092;2023-04-03T13:16:32;16.50;16.70
3699;DHT22;1865;50.918;7.092;2023-04-03T13:18:58;16.40;15.20
3699;DHT22;1865;50.918;7.092;2023-04-03T13:21:27;16.50;16.20
3699;DHT22;1865;50.918;7.092;2023-04-03T13:24:00;17.40;16.50
3699;DHT22;1865;50.918;7.092;2023-04-03T13:26:29;18.20;14.80
3699;DHT22;1865;50.918;7.092;2023-04-03T13:29:14;18.40;14.90
3699;DHT22;1865;50.918;7.092;2023-04-03T13:31:43;18.50;15.20
3699;DHT22;1865;50.918;7.092;2023-04-03T13:36:38;18.50;14.90
3699;DHT22;1865;50.918;7.092;2023-04-03T13:41:41;17.60;15.70
3699;DHT22;1865;50.918;7.092;2023-04-03T13:46:52;17.10;16.80
3699;DHT22;1865;50.918;7.092;2023-04-03T13:49:30;18.70;15.90
3699;DHT22;1865;50.918;7.092;2023-04-03T13:51:56;19.60;15.30
3699;DHT22;1865;50.918;7.092;2023-04-03T13:54:31;20.60;14.30
3699;DHT22;1865;50.918;7.092;2023-04-03T13:56:58;20.60;14.00
3699;DHT22;1865;50.918;7.092;2023-04-03T13:59:32;20.50;13.90
3699;DHT22;1865;50.918;7.092;2023-04-03T14:04:30;19.90;14.10
3699;DHT22;1865;50.918;7.092;2023-04-03T14:06:56;20.30;14.40
3699;DHT22;1865;50.918;7.092;2023-04-03T14:09:23;20.80;13.90
3699;DHT22;1865;50.918;7.092;2023-04-03T14:11:52;20.70;14.00
3699;DHT22;1865;50.918;7.092;2023-04-03T14:14:22;20.10;13.60
3699;DHT22;1865;50.918;7.092;2023-04-03T14:16:52;20.10;14.00
3699;DHT22;1865;50.918;7.092;2023-04-03T14:19:23;20.40;14.40
3699;DHT22;1865;50.918;7.092;2023-04-03T14:21:49;20.20;14.40
3699;DHT22;1865;50.918;7.092;2023-04-03T14:24:16;20.30;13.70
3699;DHT22;1865;50.918;7.092;2023-04-03T14:26:43;20.60;13.50
3699;DHT22;1865;50.918;7.092;2023-04-03T14:29:10;20.80;13.60
3699;DHT22;1865;50.918;7.092;2023-04-03T14:31:36;20.60;12.90
3699;DHT22;1865;50.918;7.092;2023-04-03T14:34:02;21.00;14.00
3699;DHT22;1865;50.918;7.092;2023-04-03T14:36:28;19.90;13.80
3699;DHT22;1865;50.918;7.092;2023-04-03T14:38:55;19.60;13.90
3699;DHT22;1865;50.918;7.092;2023-04-03T14:41:22;19.20;15.00
3699;DHT22;1865;50.918;7.092;2023-04-03T14:43:48;19.10;14.60
3699;DHT22;1865;50.918;7.092;2023-04-03T14:46:21;18.60;14.60
3699;DHT22;1865;50.918;7.092;2023-04-03T14:48:49;18.80;15.80
3699;DHT22;1865;50.918;7.092;2023-04-03T14:51:15;19.50;15.10
3699;DHT22;1865;50.918;7.092;2023-04-03T14:53:42;19.60;14.80
3699;DHT22;1865;50.918;7.092;2023-04-03T14:56:20;18.90;15.20
3699;DHT22;1865;50.918;7.092;2023-04-03T14:58:53;18.60;15.30
3699;DHT22;1865;50.918;7.092;2023-04-03T15:01:19;17.90;15.40
3699;DHT22;1865;50.918;7.092;2023-04-03T15:03:45;17.90;16.00
3699;DHT22;1865;50.918;7.092;2023-04-03T15:06:12;18.20;16.30
3699;DHT22;1865;50.918;7.092;2023-04-03T15:08:39;17.90;15.80
3699;DHT22;1865;50.918;7.092;2023-04-03T15:11:06;17.70;15.80
3699;DHT22;1865;50.918;7.092;2023-04-03T15:13:32;17.70;16.10
3699;DHT22;1865;50.918;7.092;2023-04-03T15:15:58;17.30;16.30
3699;DHT22;1865;50.918;7.092;2023-04-03T15:18:25;17.00;16.20
3699;DHT22;1865;50.918;7.092;2023-04-03T15:20:52;16.70;16.80
3699;DHT22;1865;50.918;7.092;2023-04-03T15:23:18;16.70;17.00
3699;DHT22;1865;50.918;7.092;2023-04-03T15:25:45;16.40;17.10
3699;DHT22;1865;50.918;7.092;2023-04-03T15:30:46;15.60;17.20
3699;DHT22;1865;50.918;7.092;2023-04-03T15:33:12;15.50;17.60
3699;DHT22;1865;50.918;7.092;2023-04-03T15:35:38;15.80;17.90
3699;DHT22;1865;50.918;7.092;2023-04-03T15:38:03;16.20;17.30
3699;DHT22;1865;50.918;7.092;2023-04-03T15:40:29;16.20;17.50
3699;DHT22;1865;50.918;7.092;2023-04-03T15:42:55;16.30;17.10
3699;DHT22;1865;50.918;7.092;2023-04-03T15:45:20;15.90;17.20
3699;DHT22;1865;50.918;7.092;2023-04-03T15:47:47;15.50;17.60
3699;DHT22;1865;50.918;7.092;2023-04-03T15:50:12;15.10;18.00
3699;DHT22;1865;50.918;7.092;2023-04-03T15:52:38;14.90;18.20
3699;DHT22;1865;50.918;7.092;2023-04-03T15:55:04;15.00;18.70
3699;DHT22;1865;50.918;7.092;2023-04-03T15:57:30;14.80;18.50
3699;DHT22;1865;50.918;7.092;2023-04-03T15:59:55;14.40;18.70
3699;DHT22;1865;50.918;7.092;2023-04-03T16:02:22;14.50;19.30
3699;DHT22;1865;50.918;7.092;2023-04-03T16:04:49;14.50;18.80
3699;DHT22;1865;50.918;7.092;2023-04-03T16:07:14;14.70;18.80
3699;DHT22;1865;50.918;7.092;2023-04-03T16:09:40;14.80;19.20
3699;DHT22;1865;50.918;7.092;2023-04-03T16:12:06;15.00;19.50
3699;DHT22;1865;50.918;7.092;2023-04-03T16:14:31;15.10;18.80
3699;DHT22;1865;50.918;7.092;2023-04-03T16:16:58;15.10;19.30
3699;DHT22;1865;50.918;7.092;2023-04-03T16:19:24;15.10;19.50
3699;DHT22;1865;50.918;7.092;2023-04-03T16:21:49;15.20;19.70
3699;DHT22;1865;50.918;7.092;2023-04-03T16:24:15;15.50;19.30
3699;DHT22;1865;50.918;7.092;2023-04-03T16:26:41;16.00;19.00
3699;DHT22;1865;50.918;7.092;2023-04-03T16:29:06;16.50;18.50
3699;DHT22;1865;50.918;7.092;2023-04-03T16:31:33;16.50;18.50
3699;DHT22;1865;50.918;7.092;2023-04-03T16:34:00;16.40;17.90
3699;DHT22;1865;50.918;7.092;2023-04-03T16:36:26;16.70;17.80
3699;DHT22;1865;50.918;7.092;2023-04-03T16:38:51;17.60;17.30
3699;DHT22;1865;50.918;7.092;2023-04-03T16:41:17;18.20;16.70
3699;DHT22;1865;50.918;7.092;2023-04-03T16:43:42;17.90;15.80
3699;DHT22;1865;50.918;7.092;2023-04-03T16:46:08;17.70;16.70
3699;DHT22;1865;50.918;7.092;2023-04-03T16:48:33;17.90;16.70
3699;DHT22;1865;50.918;7.092;2023-04-03T16:50:59;17.90;16.20
3699;DHT22;1865;50.918;7.092;2023-04-03T16:53:25;17.50;17.20
3699;DHT22;1865;50.918;7.092;2023-04-03T16:55:52;17.20;17.00
3699;DHT22;1865;50.918;7.092;2023-04-03T16:58:18;16.90;17.30
3699;DHT22;1865;50.918;7.092;2023-04-03T17:00:43;16.40;17.70
3699;DHT22;1865;50.918;7.092;2023-04-03T17:03:09;15.70;18.00
3699;DHT22;1865;50.918;7.092;2023-04-03T17:05:35;15.20;18.50
3699;DHT22;1865;50.918;7.092;2023-04-03T17:08:01;15.30;19.20
3699;DHT22;1865;50.918;7.092;2023-04-03T17:10:27;15.70;19.20
3699;DHT22;1865;50.918;7.092;2023-04-03T17:12:53;15.90;18.70
3699;DHT22;1865;50.918;7.092;2023-04-03T17:15:19;15.70;18.70
3699;DHT22;1865;50.918;7.092;2023-04-03T17:17:46;15.60;18.60
3699;DHT22;1865;50.918;7.092;2023-04-03T17:20:11;15.60;18.80
3699;DHT22;1865;50.918;7.092;2023-04-03T17:22:37;15.40;18.60
3699;DHT22;1865;50.918;7.092;2023-04-03T17:25:03;15.10;19.00
3699;DHT22;1865;50.918;7.092;2023-04-03T17:27:29;14.60;19.20
3699;DHT22;1865;50.918;7.092;2023-04-03T17:29:55;14.30;20.30
3699;DHT22;1865;50.918;7.092;2023-04-03T17:32:20;14.20;20.00
3699;DHT22;1865;50.918;7.092;2023-04-03T17:34:46;14.10;20.10
3699;DHT22;1865;50.918;7.092;2023-04-03T17:37:12;13.80;20.10
3699;DHT22;1865;50.918;7.092;2023-04-03T17:39:38;13.50;21.20
3699;DHT22;1865;50.918;7.092;2023-04-03T17:42:03;13.40;20.90
3699;DHT22;1865;50.918;7.092;2023-04-03T17:44:29;13.20;21.10
3699;DHT22;1865;50.918;7.092;2023-04-03T17:46:55;13.20;21.30
3699;DHT22;1865;50.918;7.092;2023-04-03T17:49:20;13.20;21.30
3699;DHT22;1865;50.918;7.092;2023-04-03T17:51:46;13.10;21.50
3699;DHT22;1865;50.918;7.092;2023-04-03T17:54:12;13.00;21.80
3699;DHT22;1865;50.918;7.092;2023-04-03T17:56:38;13.00;22.20
3699;DHT22;1865;50.918;7.092;2023-04-03T17:59:03;13.10;23.50
3699;DHT22;1865;50.918;7.092;2023-04-03T18:01:31;13.00;22.30
3699;DHT22;1865;50.918;7.092;2023-04-03T18:03:59;12.90;22.40
3699;DHT22;1865;50.918;7.092;2023-04-03T18:06:31;12.60;22.90
3699;DHT22;1865;50.918;7.092;2023-04-03T18:09:03;12.60;23.20
3699;DHT22;1865;50.918;7.092;2023-04-03T18:11:29;12.60;23.30
3699;DHT22;1865;50.918;7.092;2023-04-03T18:13:57;12.60;23.90
3699;DHT22;1865;50.918;7.092;2023-04-03T18:16:24;12.70;23.60